Time;durP1;ratioP1;P1;durP2;ratioP2;P2;SDS_P1;SDS_P2;PMS_P1;PMS_P2;Temp;Humidity;BMP_temperature;BMP_pressure;BME280_temperature;BME280_humidity;BME280_pressure;Samples;Min_cycle;Max_cycle;Signal;HPM_P1;HPM_P2
2022/11/27 00:02:23;;;;;;;23.90;7.43;;;;;;;12.30;64.68;102588.66;5071960;28;20537;-69
2022/11/27 00:04:48;;;;;;;32.75;9.18;;;;;;;12.84;63.27;102588.88;5072507;28;20043;-69
2022/11/27 00:07:13;;;;;;;25.23;7.82;;;;;;;12.50;63.82;102588.00;5072658;28;20048;-69
2022/11/27 00:09:39;;;;;;;24.92;7.30;;;;;;;12.58;63.61;102587.88;5072994;28;20503;-69
2022/11/27 00:12:04;;;;;;;17.15;7.20;;;;;;;13.08;61.67;102587.59;5072552;28;20416;-69
2022/11/27 00:14:30;;;;;;;22.73;7.07;;;;;;;12.88;62.30;102578.50;5071446;28;20064;-72
2022/11/27 00:16:56;;;;;;;24.25;7.28;;;;;;;12.79;62.25;102579.72;5069863;28;20034;-68
2022/11/27 00:19:21;;;;;;;21.85;7.25;;;;;;;12.27;64.00;102583.66;5079719;28;20561;-70
2022/11/27 00:21:47;;;;;;;30.20;8.07;;;;;;;12.42;63.85;102566.56;5062476;28;20043;-70
2022/11/27 00:24:12;;;;;;;27.38;7.72;;;;;;;12.37;63.58;102569.84;5072911;28;20485;-69
2022/11/27 00:26:38;;;;;;;28.08;7.38;;;;;;;12.32;64.19;102567.72;5072083;28;20052;-69
2022/11/27 00:29:03;;;;;;;23.58;7.03;;;;;;;12.17;64.07;102566.13;5069226;28;20785;-71
2022/11/27 00:31:31;;;;;;;23.25;7.25;;;;;;;12.32;63.44;102567.72;5072449;28;20040;-69
2022/11/27 00:33:59;;;;;;;18.70;6.68;;;;;;;12.40;63.20;102568.63;5072445;28;20044;-69
2022/11/27 00:36:27;;;;;;;24.85;7.32;;;;;;;12.60;62.07;102566.94;5071703;28;20031;-69
2022/11/27 00:38:52;;;;;;;24.60;7.13;;;;;;;12.31;63.45;102560.69;5072332;28;20048;-69
2022/11/27 00:41:22;;;;;;;20.17;7.40;;;;;;;12.85;61.48;102555.47;5072325;28;20036;-69
2022/11/27 00:43:48;;;;;;;22.08;8.10;;;;;;;12.60;62.18;102548.84;5072471;28;20036;-70
2022/11/27 00:46:20;;;;;;;19.45;7.78;;;;;;;12.54;62.48;102548.84;5070964;28;20119;-69
2022/11/27 00:48:45;;;;;;;30.50;8.05;;;;;;;12.34;63.08;102535.19;5070663;28;20105;-70
2022/11/27 00:51:13;;;;;;;18.95;7.85;;;;;;;12.47;62.80;102534.44;5057809;28;20119;-69
2022/11/27 00:53:39;;;;;;;26.67;8.65;;;;;;;11.49;65.18;102539.72;5051936;28;20057;-69
2022/11/27 00:56:05;;;;;;;24.98;9.93;;;;;;;11.81;64.92;102541.13;5052196;28;20039;-69
2022/11/27 00:58:31;;;;;;;25.15;7.78;;;;;;;11.91;63.96;102541.66;5051873;28;20515;-70
2022/11/27 01:01:02;;;;;;;19.00;7.13;;;;;;;11.84;64.54;102532.66;5052129;28;20037;-69
2022/11/27 01:03:28;;;;;;;23.15;8.23;;;;;;;11.62;64.78;102541.69;5052444;28;20086;-69
2022/11/27 01:05:54;;;;;;;22.75;8.18;;;;;;;11.99;63.60;102542.34;5052049;28;20052;-69
2022/11/27 01:08:19;;;;;;;13.57;6.63;;;;;;;11.86;63.33;102542.22;5033618;28;20431;-69
2022/11/27 01:10:53;;;;;;;26.67;9.02;;;;;;;11.52;65.16;102546.59;5051671;28;20045;-69
2022/11/27 01:13:22;;;;;;;23.88;7.72;;;;;;;11.74;64.26;102543.75;5051952;28;20033;-69
2022/11/27 01:16:02;;;;;;;23.05;7.88;;;;;;;12.14;63.44;102537.72;5058180;28;20036;-70
2022/11/27 01:18:28;;;;;;;28.10;7.50;;;;;;;12.42;61.96;102534.22;5072098;28;20041;-70
2022/11/27 01:20:54;;;;;;;16.52;6.90;;;;;;;12.25;62.33;102533.66;5071763;28;20029;-70
2022/11/27 01:23:20;;;;;;;23.33;7.20;;;;;;;12.37;61.69;102542.88;5071668;28;20037;-71
2022/11/27 01:25:47;;;;;;;23.25;7.50;;;;;;;12.19;62.03;102546.06;5069900;28;20608;-70
2022/11/27 01:28:12;;;;;;;21.58;7.38;;;;;;;12.26;61.75;102535.34;5071261;28;20052;-71
2022/11/27 01:30:38;;;;;;;22.63;6.57;;;;;;;12.02;62.94;102530.34;5072159;28;20112;-72
2022/11/27 01:33:03;;;;;;;16.95;7.30;;;;;;;11.76;62.92;102530.94;5071621;28;20388;-72
2022/11/27 01:35:28;;;;;;;26.83;7.93;;;;;;;11.56;64.36;102529.03;5071557;28;20131;-73
2022/11/27 01:37:54;;;;;;;20.98;7.75;;;;;;;11.56;63.97;102529.03;5071529;28;20044;-71
2022/11/27 01:40:19;;;;;;;29.35;8.32;;;;;;;12.02;62.70;102516.88;5071380;28;20036;-71
2022/11/27 01:42:45;;;;;;;16.50;7.80;;;;;;;12.16;61.88;102507.88;5072004;28;20112;-72
2022/11/27 01:45:14;;;;;;;23.80;7.50;;;;;;;11.77;63.38;102515.59;5071614;28;20036;-72
2022/11/27 01:47:46;;;;;;;20.67;8.38;;;;;;;11.90;63.00;102513.88;5070975;28;20037;-70
2022/11/27 01:50:26;;;;;;;16.55;7.55;;;;;;;11.78;63.70;102506.50;5071273;28;20041;-72
2022/11/27 01:52:56;;;;;;;19.45;7.68;;;;;;;12.46;61.12;102508.53;5071297;28;20044;-72
2022/11/27 01:55:31;;;;;;;14.57;7.35;;;;;;;12.65;60.45;102514.06;5071273;28;20105;-72
2022/11/27 01:58:06;;;;;;;27.60;7.88;;;;;;;12.34;61.61;102513.63;5071322;28;20064;-72
2022/11/27 02:00:31;;;;;;;26.20;7.47;;;;;;;12.38;60.89;102509.53;5072114;28;20033;-71
2022/11/27 02:02:57;;;;;;;16.52;6.22;;;;;;;12.28;61.11;102503.63;5071293;28;20028;-71
2022/11/27 02:05:25;;;;;;;16.73;7.18;;;;;;;12.09;61.43;102490.81;5071076;28;20079;-73
2022/11/27 02:07:52;;;;;;;19.35;6.47;;;;;;;12.37;60.92;102486.28;5071562;28;20090;-71
2022/11/27 02:10:18;;;;;;;17.65;8.00;;;;;;;11.65;62.60;102474.03;5071179;28;20045;-70
2022/11/27 02:12:49;;;;;;;21.25;8.32;;;;;;;11.85;62.57;102467.81;5071422;28;20026;-73
2022/11/27 02:15:36;;;;;;;17.05;7.38;;;;;;;11.70;62.97;102458.13;5071724;28;20131;-71
2022/11/27 02:18:22;;;;;;;25.30;8.20;;;;;;;12.08;62.01;102451.44;5070966;28;20503;-71
2022/11/27 02:21:18;;;;;;;19.55;8.40;;;;;;;12.30;61.15;102455.75;5071069;28;20057;-71
2022/11/27 02:24:05;;;;;;;21.45;8.27;;;;;;;11.95;61.93;102443.25;5069470;28;20033;-70
2022/11/27 02:26:45;;;;;;;21.98;8.00;;;;;;;12.10;61.70;102447.53;5073615;28;20171;-71
2022/11/27 02:29:13;;;;;;;27.95;8.52;;;;;;;11.90;62.82;102441.13;5074884;28;20044;-72
2022/11/27 02:32:15;;;;;;;17.98;8.10;;;;;;;11.44;63.60;102442.53;5074964;28;20396;-70
2022/11/27 02:35:03;;;;;;;20.55;8.88;;;;;;;11.62;63.25;102437.53;4973573;28;20091;-72
2022/11/27 02:37:48;;;;;;;24.40;10.80;;;;;;;11.69;63.32;102438.47;4973334;28;20086;-71
2022/11/27 02:40:22;;;;;;;15.98;8.57;;;;;;;11.14;65.27;102427.53;4973299;28;20043;-71
2022/11/27 02:43:01;;;;;;;25.08;8.70;;;;;;;11.31;64.06;102408.25;4973237;28;20050;-71
2022/11/27 02:45:35;;;;;;;21.33;8.65;;;;;;;11.47;64.07;102405.31;4973751;28;20526;-72
2022/11/27 02:48:03;;;;;;;25.08;9.35;;;;;;;11.06;64.70;102398.88;4973397;28;20074;-73
2022/11/27 02:50:31;;;;;;;25.15;9.80;;;;;;;11.39;64.30;102402.75;4973223;28;20055;-71
2022/11/27 02:53:00;;;;;;;27.48;9.23;;;;;;;11.52;64.11;102410.94;4973058;28;20046;-72
2022/11/27 02:55:31;;;;;;;22.75;9.18;;;;;;;11.75;63.22;102407.25;4988114;28;20545;-71
2022/11/27 02:57:59;;;;;;;25.63;8.75;;;;;;;11.59;63.25;102415.56;4992303;28;20604;-72
2022/11/27 03:00:24;;;;;;;22.00;9.25;;;;;;;11.74;62.92;102419.88;4992797;28;20442;-71
2022/11/27 03:02:56;;;;;;;23.23;9.10;;;;;;;11.15;64.29;102418.41;4992407;28;20042;-72
2022/11/27 03:05:24;;;;;;;21.45;7.82;;;;;;;12.03;61.86;102408.06;4991392;28;20043;-71
2022/11/27 03:08:01;;;;;;;17.60;8.88;;;;;;;11.52;63.61;102415.47;4991716;28;20117;-70
2022/11/27 03:10:38;;;;;;;21.15;8.02;;;;;;;11.58;63.68;102417.41;5016316;28;20068;-71
2022/11/27 03:13:04;;;;;;;22.08;9.32;;;;;;;11.68;62.59;102403.63;5041887;28;20033;-71
2022/11/27 03:15:44;;;;;;;20.15;8.02;;;;;;;11.33;63.77;102398.13;5053744;28;20063;-71
2022/11/27 03:18:37;;;;;;;21.90;8.43;;;;;;;11.64;63.46;102388.88;5053230;28;20417;-70
2022/11/27 03:21:42;;;;;;;22.98;7.90;;;;;;;11.96;62.43;102382.94;5052825;28;20434;-71
2022/11/27 03:24:10;;;;;;;17.50;7.68;;;;;;;11.93;61.99;102372.56;5010764;28;20177;-71
2022/11/27 03:26:37;;;;;;;22.33;8.40;;;;;;;11.80;62.72;102362.53;5010774;28;20034;-70
2022/11/27 03:29:07;;;;;;;23.48;8.10;;;;;;;11.58;62.95;102357.38;5011021;28;20064;-70
2022/11/27 03:31:32;;;;;;;23.17;8.32;;;;;;;11.63;63.78;102368.38;5011231;28;20113;-71
2022/11/27 03:33:58;;;;;;;22.50;8.50;;;;;;;11.45;63.63;102372.38;4994582;28;20446;-70
2022/11/27 03:36:23;;;;;;;21.92;8.48;;;;;;;11.81;63.02;102374.16;5011649;28;20517;-71
2022/11/27 03:38:50;;;;;;;28.90;7.68;;;;;;;11.84;62.39;102366.50;5015328;28;20111;-70
2022/11/27 03:41:34;;;;;;;22.45;8.60;;;;;;;11.95;62.00;102360.56;5031089;28;20056;-73
2022/11/27 03:44:21;;;;;;;25.30;8.30;;;;;;;11.93;62.07;102367.19;5031453;28;20120;-71
2022/11/27 03:47:09;;;;;;;22.00;8.43;;;;;;;12.34;60.49;102371.56;5031517;28;20033;-70
2022/11/27 03:49:46;;;;;;;21.30;7.47;;;;;;;12.11;61.54;102359.41;5031100;28;20088;-70
2022/11/27 03:52:38;;;;;;;17.58;7.15;;;;;;;12.31;60.26;102366.59;5014632;28;20072;-70
2022/11/27 03:55:39;;;;;;;31.40;7.93;;;;;;;12.04;61.33;102358.56;5015326;28;20127;-71
2022/11/27 03:58:11;;;;;;;19.55;7.18;;;;;;;12.04;61.20;102361.25;4972062;28;20059;-71
2022/11/27 04:00:40;;;;;;;22.70;8.18;;;;;;;11.96;61.30;102354.16;5003805;28;20136;-73
2022/11/27 04:03:09;;;;;;;18.83;6.70;;;;;;;11.93;60.69;102349.16;5010982;28;20099;-70
2022/11/27 04:05:35;;;;;;;22.15;6.60;;;;;;;12.21;60.35;102355.34;4994467;28;20137;-70
2022/11/27 04:08:00;;;;;;;19.65;6.45;;;;;;;11.99;61.23;102352.94;5010965;28;20125;-73
2022/11/27 04:10:26;;;;;;;25.60;6.78;;;;;;;12.04;61.26;102358.56;5010810;28;20104;-71
2022/11/27 04:12:51;;;;;;;20.80;7.78;;;;;;;12.40;59.48;102353.78;5004044;28;20057;-72
2022/11/27 04:15:16;;;;;;;27.02;7.45;;;;;;;12.53;59.64;102353.84;4994233;28;20124;-71
2022/11/27 04:17:42;;;;;;;23.25;6.38;;;;;;;12.26;60.21;102347.47;5010561;28;20042;-72
2022/11/27 04:20:07;;;;;;;19.15;6.38;;;;;;;12.20;60.38;102352.84;5010477;28;20129;-72
2022/11/27 04:22:33;;;;;;;18.40;6.63;;;;;;;12.36;59.79;102349.81;5010512;28;20141;-72
2022/11/27 04:24:58;;;;;;;19.70;6.90;;;;;;;12.80;58.43;102349.34;5010579;28;20036;-72
2022/11/27 04:27:23;;;;;;;22.00;6.55;;;;;;;12.64;58.93;102347.84;5007096;28;20035;-71
2022/11/27 04:29:49;;;;;;;12.88;5.65;;;;;;;12.38;59.21;102355.00;4990936;28;20662;-70
2022/11/27 04:32:14;;;;;;;12.60;6.03;;;;;;;12.88;57.95;102344.63;4990860;28;20549;-71
2022/11/27 04:34:39;;;;;;;18.75;5.50;;;;;;;12.68;58.84;102346.41;5022870;28;20116;-71
2022/11/27 04:37:05;;;;;;;16.58;5.82;;;;;;;12.64;58.73;102353.25;5052672;28;20033;-70
2022/11/27 04:39:30;;;;;;;14.75;5.20;;;;;;;12.57;59.32;102354.25;5053072;28;20067;-71
2022/11/27 04:41:56;;;;;;;16.98;6.15;;;;;;;11.93;60.51;102342.94;5052512;28;20412;-71
2022/11/27 04:44:21;;;;;;;17.48;4.97;;;;;;;12.57;59.30;102359.66;5052478;28;20056;-69
2022/11/27 04:46:50;;;;;;;24.63;6.10;;;;;;;12.63;58.42;102353.47;5052415;28;20036;-69
2022/11/27 04:49:15;;;;;;;15.20;5.13;;;;;;;12.91;57.83;102351.50;5052365;28;20374;-69
2022/11/27 04:51:41;;;;;;;17.23;5.20;;;;;;;12.65;58.59;102352.22;5052591;28;20039;-71
2022/11/27 04:54:06;;;;;;;16.63;4.40;;;;;;;12.65;58.91;102344.13;5033835;28;20600;-70
2022/11/27 04:56:31;;;;;;;17.60;4.68;;;;;;;12.63;59.38;102348.06;5070450;28;20056;-69
2022/11/27 04:58:57;;;;;;;14.65;5.78;;;;;;;12.29;59.67;102343.56;5072052;28;20063;-69
2022/11/27 05:01:22;;;;;;;19.55;4.97;;;;;;;12.53;59.59;102329.56;5070421;28;20033;-70
2022/11/27 05:03:47;;;;;;;13.00;5.07;;;;;;;12.22;60.16;102323.84;5071646;28;20029;-69
2022/11/27 05:06:13;;;;;;;9.43;4.35;;;;;;;12.07;60.36;102323.94;5071629;28;20021;-70
2022/11/27 05:08:38;;;;;;;20.52;5.28;;;;;;;12.51;59.76;102315.47;5071425;28;20688;-70
2022/11/27 05:11:05;;;;;;;11.30;4.85;;;;;;;12.18;60.54;102330.66;5071247;28;20522;-70
2022/11/27 05:13:31;;;;;;;16.20;4.28;;;;;;;12.40;59.56;102321.44;5071510;28;20041;-69
2022/11/27 05:15:57;;;;;;;16.83;6.22;;;;;;;12.58;58.97;102312.78;5071686;28;20117;-69
2022/11/27 05:18:23;;;;;;;22.25;5.20;;;;;;;12.35;59.83;102313.09;5072193;28;20040;-69
2022/11/27 05:20:59;;;;;;;14.82;4.88;;;;;;;12.34;59.54;102311.47;5071521;28;20041;-70
2022/11/27 05:23:25;;;;;;;15.07;4.70;;;;;;;11.92;61.11;102308.94;5071785;28;20580;-71
2022/11/27 05:25:51;;;;;;;10.43;4.93;;;;;;;11.91;60.39;102308.09;5071753;28;20507;-70
2022/11/27 05:28:17;;;;;;;13.27;5.00;;;;;;;12.29;59.86;102301.28;5071437;28;20074;-70
2022/11/27 05:30:42;;;;;;;13.00;4.95;;;;;;;12.13;59.78;102293.50;5071987;28;20103;-69
2022/11/27 05:33:08;;;;;;;12.88;5.53;;;;;;;12.57;59.45;102301.16;5071394;28;20032;-70
2022/11/27 05:35:33;;;;;;;15.63;4.75;;;;;;;12.77;57.86;102291.28;5071541;28;20067;-69
2022/11/27 05:37:58;;;;;;;10.75;5.03;;;;;;;12.82;58.14;102288.78;5071454;28;20033;-70
2022/11/27 05:40:24;;;;;;;13.13;4.80;;;;;;;13.02;57.43;102295.06;5071333;28;20147;-70
2022/11/27 05:42:49;;;;;;;10.90;4.40;;;;;;;12.58;59.13;102291.22;5071498;28;20071;-69
2022/11/27 05:45:14;;;;;;;15.13;5.78;;;;;;;12.88;57.70;102296.06;5071892;28;20036;-69
2022/11/27 05:47:40;;;;;;;9.05;4.43;;;;;;;12.55;58.44;102288.91;5071570;28;20440;-69
2022/11/27 05:50:06;;;;;;;13.63;5.10;;;;;;;12.07;59.44;102290.78;5071401;28;20154;-70
2022/11/27 05:52:31;;;;;;;12.30;4.53;;;;;;;12.26;59.80;102293.56;5071420;28;20511;-70
2022/11/27 05:54:57;;;;;;;10.25;5.00;;;;;;;12.92;57.45;102291.91;5070970;28;20135;-69
2022/11/27 05:57:22;;;;;;;10.38;5.30;;;;;;;12.71;58.00;102294.78;5071774;28;20174;-69
2022/11/27 05:59:47;;;;;;;12.88;4.93;;;;;;;12.74;57.65;102282.72;5071131;28;20073;-70
2022/11/27 06:02:13;;;;;;;18.65;5.25;;;;;;;12.73;58.00;102287.31;5071277;28;20067;-69
2022/11/27 06:04:38;;;;;;;10.35;4.60;;;;;;;12.56;58.21;102286.00;5071276;28;20059;-69
2022/11/27 06:07:03;;;;;;;12.23;5.95;;;;;;;12.91;57.63;102286.72;5071021;28;20428;-69
2022/11/27 06:09:29;;;;;;;19.92;6.65;;;;;;;12.71;58.06;102283.16;5071554;28;20078;-72
2022/11/27 06:11:54;;;;;;;16.83;5.00;;;;;;;12.67;57.88;102285.44;5065678;28;20059;-72
2022/11/27 06:14:20;;;;;;;15.93;6.05;;;;;;;12.35;58.44;102276.22;5071441;28;20035;-72
2022/11/27 06:16:45;;;;;;;13.05;4.97;;;;;;;12.33;58.59;102275.56;5071024;28;20163;-72
2022/11/27 06:19:10;;;;;;;13.77;5.95;;;;;;;12.50;58.50;102270.63;5071175;28;20072;-72
2022/11/27 06:21:36;;;;;;;16.33;5.75;;;;;;;12.71;58.29;102269.66;5071381;28;20445;-71
2022/11/27 06:24:02;;;;;;;14.75;5.45;;;;;;;12.36;58.83;102269.78;5071212;28;20094;-70
2022/11/27 06:26:30;;;;;;;15.48;5.13;;;;;;;12.06;59.78;102265.72;5071054;28;20450;-71
2022/11/27 06:28:56;;;;;;;22.52;6.72;;;;;;;12.14;59.43;102262.84;5070643;28;20555;-70
2022/11/27 06:31:25;;;;;;;15.52;6.45;;;;;;;12.42;58.54;102261.91;5071039;28;20043;-72
2022/11/27 06:33:52;;;;;;;17.00;5.32;;;;;;;12.83;57.34;102244.59;5071137;28;20037;-71
2022/11/27 06:36:18;;;;;;;15.27;6.40;;;;;;;12.20;58.78;102245.06;5069189;28;20044;-70
2022/11/27 06:38:44;;;;;;;10.20;5.70;;;;;;;12.66;57.96;102243.31;5070852;28;20052;-71
2022/11/27 06:41:17;;;;;;;10.95;6.28;;;;;;;12.67;57.56;102242.28;5070887;28;20045;-70
2022/11/27 06:43:43;;;;;;;12.35;5.82;;;;;;;12.42;58.71;102240.34;5070893;28;20054;-71
2022/11/27 06:46:12;;;;;;;15.25;5.65;;;;;;;12.64;57.68;102237.28;5070490;28;20033;-72
2022/11/27 06:48:38;;;;;;;12.57;7.05;;;;;;;12.57;57.83;102232.91;5071450;28;20099;-71
2022/11/27 06:51:06;;;;;;;13.65;6.00;;;;;;;12.19;59.69;102237.97;5070321;28;20038;-71
2022/11/27 06:53:34;;;;;;;12.60;6.15;;;;;;;12.40;58.64;102237.03;5070592;28;20083;-70
2022/11/27 06:56:02;;;;;;;16.60;6.07;;;;;;;12.51;58.33;102228.34;5068459;28;20044;-71
2022/11/27 06:58:28;;;;;;;12.45;5.13;;;;;;;12.51;58.09;102239.13;5070817;28;20045;-71
2022/11/27 07:01:01;;;;;;;17.27;5.93;;;;;;;12.76;57.54;102241.03;5070406;28;20068;-70
2022/11/27 07:03:26;;;;;;;14.07;6.05;;;;;;;12.81;57.35;102241.28;5071286;28;20036;-70
2022/11/27 07:05:52;;;;;;;20.05;7.20;;;;;;;12.55;57.95;102235.81;5070605;28;20409;-74
2022/11/27 07:08:18;;;;;;;12.20;6.05;;;;;;;12.93;56.87;102245.00;5070520;28;20049;-71
2022/11/27 07:10:43;;;;;;;12.02;6.13;;;;;;;13.12;55.91;102238.00;5050271;28;20045;-71
2022/11/27 07:13:08;;;;;;;15.45;5.57;;;;;;;12.74;57.80;102245.81;5052365;28;20119;-72
2022/11/27 07:15:34;;;;;;;11.55;6.28;;;;;;;13.13;56.05;102255.84;5054322;28;20107;-71
2022/11/27 07:18:02;;;;;;;11.05;5.95;;;;;;;12.63;57.55;102256.38;5053938;28;20076;-70
2022/11/27 07:20:28;;;;;;;16.27;6.57;;;;;;;13.11;56.25;102253.34;5053937;28;20084;-72
2022/11/27 07:22:54;;;;;;;9.85;6.03;;;;;;;12.95;56.21;102242.13;5053862;28;20064;-71
2022/11/27 07:25:20;;;;;;;13.43;6.13;;;;;;;12.56;58.52;102234.78;5053421;28;20036;-71
2022/11/27 07:27:45;;;;;;;16.52;6.03;;;;;;;13.30;56.25;102224.69;5054119;28;20071;-71
2022/11/27 07:30:11;;;;;;;20.02;6.43;;;;;;;12.67;58.02;102217.16;5053871;28;20036;-72
2022/11/27 07:32:36;;;;;;;13.35;6.75;;;;;;;12.74;57.58;102205.34;5053126;28;20091;-72
2022/11/27 07:35:02;;;;;;;15.50;7.05;;;;;;;12.73;58.03;102217.19;5052906;28;20540;-72
2022/11/27 07:37:31;;;;;;;15.85;6.88;;;;;;;12.67;58.23;102209.09;5052765;28;20049;-71
2022/11/27 07:39:56;;;;;;;15.30;7.43;;;;;;;12.74;58.06;102207.22;5052795;28;20072;-71
2022/11/27 07:42:22;;;;;;;14.90;6.75;;;;;;;12.89;57.82;102197.88;5053348;28;20461;-70
2022/11/27 07:44:47;;;;;;;19.73;8.20;;;;;;;12.91;57.46;102197.69;5034412;28;20538;-73
2022/11/27 07:47:12;;;;;;;15.52;7.15;;;;;;;12.85;57.73;102187.72;5052793;28;20029;-72
2022/11/27 07:49:38;;;;;;;13.10;6.35;;;;;;;12.28;58.71;102191.78;5034278;28;20723;-71
2022/11/27 07:52:03;;;;;;;16.10;7.25;;;;;;;12.75;57.89;102190.84;5052402;28;20036;-72
2022/11/27 07:54:29;;;;;;;17.77;7.53;;;;;;;12.26;58.69;102179.56;5053049;28;20032;-70
2022/11/27 07:56:54;;;;;;;20.38;7.28;;;;;;;12.49;58.37;102174.63;5052035;28;20137;-71
2022/11/27 07:59:20;;;;;;;15.52;6.63;;;;;;;12.72;57.53;102172.34;5052623;28;20041;-72
2022/11/27 08:01:45;;;;;;;15.02;8.07;;;;;;;12.73;57.01;102162.41;5052761;28;20507;-70
2022/11/27 08:04:10;;;;;;;16.73;8.23;;;;;;;12.52;58.24;102171.50;5052452;28;20033;-70
2022/11/27 08:06:36;;;;;;;21.70;7.70;;;;;;;12.06;59.78;102163.34;5052638;28;20032;-70
2022/11/27 08:09:02;;;;;;;22.08;7.30;;;;;;;12.13;59.55;102160.63;5052203;28;20040;-71
2022/11/27 08:11:31;;;;;;;16.42;7.10;;;;;;;13.02;57.33;102160.13;5052687;28;20067;-72
2022/11/27 08:14:05;;;;;;;16.73;8.27;;;;;;;12.92;57.57;102159.72;5053256;28;20024;-70
2022/11/27 08:16:32;;;;;;;19.50;7.95;;;;;;;12.65;58.36;102154.53;5052793;28;20057;-72
2022/11/27 08:18:58;;;;;;;15.80;8.35;;;;;;;12.80;57.93;102158.66;5052131;28;20520;-70
2022/11/27 08:21:23;;;;;;;15.00;7.43;;;;;;;12.26;58.98;102158.81;5052281;28;20151;-72
2022/11/27 08:23:49;;;;;;;17.35;8.07;;;;;;;12.51;59.40;102155.53;5051947;28;20036;-71
2022/11/27 08:26:14;;;;;;;20.05;10.07;;;;;;;12.43;59.46;102153.88;5051860;28;20033;-70
2022/11/27 08:28:40;;;;;;;21.88;9.85;;;;;;;12.78;58.30;102159.91;5051829;28;20029;-71
2022/11/27 08:31:08;;;;;;;21.27;8.90;;;;;;;12.28;59.89;102158.63;5050891;28;20525;-73
2022/11/27 08:33:33;;;;;;;17.85;7.18;;;;;;;12.67;58.69;102161.38;5050508;28;20025;-73
2022/11/27 08:35:59;;;;;;;16.45;8.73;;;;;;;13.28;56.88;102159.28;5048767;28;20040;-72
2022/11/27 08:38:25;;;;;;;23.58;9.80;;;;;;;13.33;57.07;102167.56;5049403;28;20029;-73
2022/11/27 08:40:59;;;;;;;17.70;8.85;;;;;;;13.52;56.29;102171.28;5049816;28;20024;-72
2022/11/27 08:43:26;;;;;;;20.05;8.68;;;;;;;13.46;56.50;102164.84;5049985;28;20041;-73
2022/11/27 08:45:52;;;;;;;20.42;9.25;;;;;;;13.29;57.07;102160.94;5049822;28;20424;-72
2022/11/27 08:48:18;;;;;;;24.50;9.38;;;;;;;13.32;56.70;102170.50;5050473;28;20030;-72
2022/11/27 08:50:44;;;;;;;19.05;7.82;;;;;;;12.78;59.47;102171.53;5049496;28;20033;-71
2022/11/27 08:53:10;;;;;;;16.75;8.48;;;;;;;12.07;61.16;102164.97;5049837;28;20439;-73
2022/11/27 08:55:35;;;;;;;23.63;9.93;;;;;;;13.07;59.21;102167.63;5035345;28;20040;-71
2022/11/27 08:58:02;;;;;;;19.90;9.98;;;;;;;12.58;59.72;102154.50;5069664;28;20025;-70
2022/11/27 09:00:29;;;;;;;20.88;9.23;;;;;;;13.44;57.71;102164.25;5068049;28;20764;-73
2022/11/27 09:02:55;;;;;;;20.80;8.88;;;;;;;13.65;57.12;102155.03;5069547;28;20044;-72
2022/11/27 09:05:20;;;;;;;21.58;9.82;;;;;;;12.93;59.20;102158.66;5069249;28;20048;-71
2022/11/27 09:07:46;;;;;;;20.33;10.88;;;;;;;13.40;58.36;102152.22;5069060;28;20032;-72
2022/11/27 09:10:11;;;;;;;18.00;9.90;;;;;;;13.27;58.71;102154.09;5070145;28;20033;-73
2022/11/27 09:12:37;;;;;;;21.98;10.07;;;;;;;13.05;59.12;102157.03;5067960;28;20081;-73
2022/11/27 09:15:02;;;;;;;24.17;10.63;;;;;;;12.93;60.49;102168.63;5068408;28;20135;-72
2022/11/27 09:17:29;;;;;;;20.77;9.90;;;;;;;12.82;60.70;102171.94;5072011;28;20460;-74
2022/11/27 09:19:54;;;;;;;26.45;10.73;;;;;;;13.02;59.84;102162.81;5083685;28;20025;-72
2022/11/27 09:22:20;;;;;;;19.63;9.55;;;;;;;13.54;58.48;102172.72;5072803;28;20067;-74
2022/11/27 09:24:45;;;;;;;26.70;10.65;;;;;;;13.69;58.06;102156.25;5070371;28;20215;-74
2022/11/27 09:27:11;;;;;;;27.17;10.75;;;;;;;13.55;58.65;102157.34;5047250;28;20060;-73
2022/11/27 09:29:37;;;;;;;25.50;11.63;;;;;;;13.68;58.34;102151.91;5069820;28;20142;-72
2022/11/27 09:32:02;;;;;;;24.08;10.30;;;;;;;13.04;59.37;102155.38;5053586;28;20492;-72
2022/11/27 09:34:27;;;;;;;27.40;11.80;;;;;;;12.93;60.01;102161.34;5070168;28;20044;-73
2022/11/27 09:36:53;;;;;;;23.98;11.20;;;;;;;13.06;60.08;102160.56;5070344;28;20086;-72
2022/11/27 09:39:19;;;;;;;19.33;10.60;;;;;;;13.58;58.79;102156.94;5051494;28;20154;-72
2022/11/27 09:41:56;;;;;;;24.08;10.05;;;;;;;12.84;60.42;102161.78;5069122;28;20396;-72
2022/11/27 09:44:45;;;;;;;24.52;11.40;;;;;;;12.96;60.20;102155.56;5070647;28;20036;-73
2022/11/27 09:47:29;;;;;;;25.42;10.55;;;;;;;13.20;60.05;102151.41;5071120;28;20071;-73
2022/11/27 09:50:02;;;;;;;21.35;9.57;;;;;;;13.19;60.10;102150.56;5080621;28;20037;-72
2022/11/27 09:52:55;;;;;;;24.40;12.45;;;;;;;13.24;60.04;102144.56;5067683;28;20041;-72
2022/11/27 09:55:40;;;;;;;28.75;12.00;;;;;;;13.25;60.26;102153.50;5069632;28;20067;-72
2022/11/27 09:58:27;;;;;;;32.42;10.60;;;;;;;12.77;61.35;102155.56;5066640;28;20152;-74
2022/11/27 10:00:53;;;;;;;30.27;12.13;;;;;;;12.82;61.19;102148.50;5043485;28;20037;-71
2022/11/27 10:03:25;;;;;;;22.38;10.90;;;;;;;12.71;62.32;102138.34;5051843;28;20645;-70
2022/11/27 10:06:26;;;;;;;22.08;10.18;;;;;;;12.81;61.10;102130.66;5048542;28;20119;-69
2022/11/27 10:09:22;;;;;;;24.23;10.80;;;;;;;13.46;59.90;102123.50;5067118;28;20040;-70
2022/11/27 10:12:09;;;;;;;25.20;11.32;;;;;;;13.99;58.15;102125.75;5080232;28;20051;-70
2022/11/27 10:14:37;;;;;;;28.75;12.07;;;;;;;13.34;60.36;102125.22;5070683;28;20373;-69
2022/11/27 10:17:06;;;;;;;23.90;10.93;;;;;;;13.64;59.24;102116.38;5067323;28;20064;-70
2022/11/27 10:19:37;;;;;;;21.13;10.60;;;;;;;13.60;59.36;102112.44;5069625;28;20041;-70
2022/11/27 10:22:10;;;;;;;21.40;10.88;;;;;;;13.71;59.11;102116.34;5067623;28;20097;-70
2022/11/27 10:24:49;;;;;;;20.35;9.40;;;;;;;13.44;59.78;102117.50;5070356;28;20477;-69
2022/11/27 10:27:38;;;;;;;22.20;10.75;;;;;;;13.77;59.00;102108.22;5069029;28;20088;-71
2022/11/27 10:30:17;;;;;;;15.63;9.88;;;;;;;13.79;59.15;102111.53;4979100;28;20034;-70
2022/11/27 10:32:45;;;;;;;22.27;10.55;;;;;;;13.58;59.14;102111.00;4975028;28;20669;-70
2022/11/27 10:35:18;;;;;;;21.95;9.95;;;;;;;14.07;58.54;102108.47;4982416;28;20053;-70
2022/11/27 10:37:51;;;;;;;20.77;11.73;;;;;;;13.74;59.29;102105.94;4953497;28;20039;-70
2022/11/27 10:40:25;;;;;;;23.23;9.85;;;;;;;14.10;58.23;102100.75;4966265;28;20083;-71
2022/11/27 10:43:03;;;;;;;16.60;9.73;;;;;;;14.28;57.56;102089.22;4964397;28;20031;-71
2022/11/27 10:45:51;;;;;;;22.77;11.63;;;;;;;14.13;57.96;102091.41;4964533;28;20038;-69
2022/11/27 10:48:17;;;;;;;18.15;11.25;;;;;;;14.13;58.56;102086.00;4962969;28;20142;-70
2022/11/27 10:50:44;;;;;;;21.15;10.55;;;;;;;13.82;59.41;102084.06;4979475;28;20038;-70
2022/11/27 10:53:34;;;;;;;21.60;10.85;;;;;;;14.09;58.49;102082.06;4979170;28;20062;-71
2022/11/27 10:56:02;;;;;;;22.77;10.32;;;;;;;14.04;58.22;102076.47;4984296;28;20068;-70
2022/11/27 10:59:00;;;;;;;26.40;10.18;;;;;;;13.57;59.83;102077.78;4973524;28;20748;-71
2022/11/27 11:01:28;;;;;;;16.08;9.30;;;;;;;13.94;58.55;102068.00;4977675;28;20031;-70
2022/11/27 11:04:08;;;;;;;16.60;9.98;;;;;;;14.23;57.73;102061.97;4985117;28;20042;-71
2022/11/27 11:06:39;;;;;;;23.42;10.23;;;;;;;13.50;59.71;102059.94;5003527;28;20047;-71
2022/11/27 11:09:23;;;;;;;15.68;9.02;;;;;;;13.42;59.05;102054.78;5067536;28;20040;-70
2022/11/27 11:11:48;;;;;;;18.95;9.23;;;;;;;13.52;59.60;102058.66;5068514;28;20029;-72
2022/11/27 11:14:21;;;;;;;20.17;10.02;;;;;;;13.94;58.88;102041.81;5053221;28;20040;-71
2022/11/27 11:16:48;;;;;;;24.77;9.35;;;;;;;14.11;58.44;102045.63;5070406;28;20090;-70
2022/11/27 11:19:31;;;;;;;18.85;8.50;;;;;;;13.72;59.31;102026.19;5059658;28;20045;-72
2022/11/27 11:21:59;;;;;;;12.90;8.20;;;;;;;13.82;59.33;102019.22;5066918;28;20025;-69
2022/11/27 11:24:28;;;;;;;17.65;9.13;;;;;;;14.13;58.94;102023.81;5070709;28;20032;-70
2022/11/27 11:27:03;;;;;;;16.38;8.88;;;;;;;14.31;58.00;102013.06;5069786;28;20041;-70
2022/11/27 11:29:39;;;;;;;17.48;9.95;;;;;;;14.16;58.30;102006.31;5051607;28;20033;-72